Time,TemperatureF,DewpointF,PressureIn,WindDirection,WindDirectionDegrees,WindSpeedMPH,WindSpeedGustMPH,Humidity,HourlyPrecipIn,Conditions,Clouds,dailyrainin,SoftwareType,DateUTC
2013-07-15 06:31:00,52.7,51.0,29.85,NNW,329,0.0,0.0,94,0.00,,,0.00,Wunderground v.1.15,2013-07-15 13:31:00,
2013-07-15 06:32:00,52.9,51.2,29.85,NNW,329,0.0,0.0,94,0.00,,,0.00,Wunderground v.1.15,2013-07-15 13:32:00,
2013-07-15 06:35:00,53.0,51.3,29.86,NNW,329,0.0,0.0,94,0.00,,,0.00,Wunderground v.1.15,2013-07-15 13:35:00,
2013-07-15 06:40:00,53.2,51.5,29.85,NNW,329,0.0,0.0,94,0.00,,,0.00,Wunderground v.1.15,2013-07-15 13:40:00,
2013-07-15 06:45:00,53.4,51.7,29.85,NNW,329,0.0,0.0,94,0.00,,,0.00,Wunderground v.1.15,2013-07-15 13:45:00,
2013-07-15 06:51:00,53.6,51.9,29.86,NNW,329,0.0,0.0,94,0.00,,,0.00,Wunderground v.1.15,2013-07-15 13:51:00,
2013-07-15 06:56:00,53.9,52.5,29.86,NNW,329,0.0,0.0,95,0.00,,,0.00,Wunderground v.1.15,2013-07-15 13:56:00,
2013-07-15 07:01:00,54.3,52.9,29.86,NNW,329,0.0,0.0,95,0.00,,,0.00,Wunderground v.1.15,2013-07-15 14:01:00,
2013-07-15 07:06:00,54.7,53.3,29.86,NNW,329,0.0,0.0,95,0.00,,,0.00,Wunderground v.1.15,2013-07-15 14:06:00,
2013-07-15 07:11:00,55.2,53.8,29.86,NNW,329,0.0,1.0,95,0.00,,,0.00,Wunderground v.1.15,2013-07-15 14:11:00,
2013-07-15 07:16:00,55.8,54.7,29.86,NNW,329,0.0,1.0,96,0.00,,,0.00,Wunderground v.1.15,2013-07-15 14:16:00,
2013-07-15 07:21:00,56.5,55.4,29.86,NNW,329,0.0,0.0,96,0.00,,,0.00,Wunderground v.1.15,2013-07-15 14:21:00,
2013-07-15 07:27:00,57.4,56.6,29.86,NNW,329,0.0,0.0,97,0.00,,,0.00,Wunderground v.1.15,2013-07-15 14:27:00,
2013-07-15 07:33:00,58.4,57.3,29.86,NNW,329,0.0,0.0,96,0.00,,,0.00,Wunderground v.1.15,2013-07-15 14:33:00,
2013-07-15 07:38:00,59.4,58.0,29.86,NNW,329,0.0,0.0,95,0.00,,,0.00,Wunderground v.1.15,2013-07-15 14:38:00,
2013-07-15 07:44:00,60.6,58.6,29.86,NNW,343,0.0,0.0,93,0.00,,,0.00,Wunderground v.1.15,2013-07-15 14:44:00,
2013-07-15 07:50:00,61.7,58.7,29.86,NNW,345,0.0,1.0,90,0.00,,,0.00,Wunderground v.1.15,2013-07-15 14:50:00,
2013-07-15 07:55:00,62.9,59.0,29.86,NNW,345,0.0,1.0,87,0.00,,,0.00,Wunderground v.1.15,2013-07-15 14:55:00,
2013-07-15 08:00:00,64.0,59.7,29.86,NNW,345,0.0,0.0,86,0.00,,,0.00,Wunderground v.1.15,2013-07-15 15:00:00,
2013-07-15 08:06:00,65.0,59.4,29.86,NNE,18,0.0,0.0,82,0.00,,,0.00,Wunderground v.1.15,2013-07-15 15:06:00,
2013-07-15 08:11:00,65.5,59.5,29.86,East,80,0.0,0.0,81,0.00,,,0.00,Wunderground v.1.15,2013-07-15 15:11:00,
2013-07-15 08:16:00,65.9,59.2,29.86,SE,145,0.0,2.0,79,0.00,,,0.00,Wunderground v.1.15,2013-07-15 15:16:00,
2013-07-15 08:21:00,66.4,59.7,29.86,South,178,1.0,2.0,79,0.00,,,0.00,Wunderground v.1.15,2013-07-15 15:21:00,
2013-07-15 08:27:00,67.0,59.5,29.86,SSE,165,1.0,2.0,77,0.00,,,0.00,Wunderground v.1.15,2013-07-15 15:27:00,
2013-07-15 08:32:00,67.9,59.7,29.86,SSW,194,1.0,1.0,75,0.00,,,0.00,Wunderground v.1.15,2013-07-15 15:32:00,
2013-07-15 08:37:00,68.7,59.3,29.86,South,173,0.0,2.0,72,0.00,,,0.00,Wunderground v.1.15,2013-07-15 15:37:00,
2013-07-15 08:42:00,69.5,59.7,29.86,SW,215,1.0,2.0,71,0.00,,,0.00,Wunderground v.1.15,2013-07-15 15:42:00,
2013-07-15 08:47:00,70.2,60.7,29.86,SW,226,1.0,3.0,72,0.00,,,0.00,Wunderground v.1.15,2013-07-15 15:47:00,
2013-07-15 08:54:00,70.7,60.8,29.86,SW,234,1.0,2.0,71,0.00,,,0.00,Wunderground v.1.15,2013-07-15 15:54:00,
2013-07-15 09:00:00,71.0,60.7,29.86,SSW,210,1.0,4.0,70,0.00,,,0.00,Wunderground v.1.15,2013-07-15 16:00:00,
2013-07-15 09:05:00,71.3,60.6,29.86,SSW,204,2.0,4.0,69,0.00,,,0.00,Wunderground v.1.15,2013-07-15 16:05:00,
2013-07-15 09:10:00,71.7,60.6,29.85,South,181,2.0,2.0,68,0.00,,,0.00,Wunderground v.1.15,2013-07-15 16:10:00,
2013-07-15 09:16:00,71.7,60.6,29.85,SW,218,2.0,3.0,68,0.00,,,0.00,Wunderground v.1.15,2013-07-15 16:16:00,
2013-07-15 09:21:00,71.8,60.7,29.85,SW,228,2.0,3.0,68,0.00,,,0.00,Wunderground v.1.15,2013-07-15 16:21:00,
2013-07-15 09:27:00,72.3,61.1,29.85,SSW,204,3.0,6.0,68,0.00,,,0.00,Wunderground v.1.15,2013-07-15 16:27:00,
2013-07-15 09:32:00,72.7,58.0,29.85,SW,216,2.0,5.0,60,0.00,,,0.00,Wunderground v.1.15,2013-07-15 16:32:00,
2013-07-15 09:39:00,72.9,59.1,29.85,SSW,208,2.0,5.0,62,0.00,,,0.00,Wunderground v.1.15,2013-07-15 16:39:00,
2013-07-15 09:44:00,73.4,59.1,29.85,SW,218,2.0,5.0,61,0.00,,,0.00,Wunderground v.1.15,2013-07-15 16:44:00,
2013-07-15 09:50:00,74.1,59.3,29.85,WSW,241,3.0,5.0,60,0.00,,,0.00,Wunderground v.1.15,2013-07-15 16:50:00,
2013-07-15 09:56:00,74.5,58.8,29.85,SSW,209,3.0,5.0,58,0.00,,,0.00,Wunderground v.1.15,2013-07-15 16:56:00,
2013-07-15 10:02:00,75.0,58.2,29.85,SW,229,3.0,3.0,56,0.00,,,0.00,Wunderground v.1.15,2013-07-15 17:02:00,
2013-07-15 10:07:00,75.6,57.8,29.85,SW,227,4.0,6.0,54,0.00,,,0.00,Wunderground v.1.15,2013-07-15 17:07:00,
2013-07-15 10:12:00,76.1,56.7,29.85,WSW,257,4.0,5.0,51,0.00,,,0.00,Wunderground v.1.15,2013-07-15 17:12:00,
2013-07-15 10:17:00,76.5,57.0,29.85,SSW,206,4.0,5.0,51,0.00,,,0.00,Wunderground v.1.15,2013-07-15 17:17:00,
2013-07-15 10:22:00,76.9,58.5,29.85,South,186,4.0,5.0,53,0.00,,,0.00,Wunderground v.1.15,2013-07-15 17:22:00,
2013-07-15 10:28:00,77.4,58.9,29.85,SW,225,4.0,5.0,53,0.00,,,0.00,Wunderground v.1.15,2013-07-15 17:28:00,
2013-07-15 10:34:00,77.7,58.1,29.85,West,261,3.0,5.0,51,0.00,,,0.00,Wunderground v.1.15,2013-07-15 17:34:00,
2013-07-15 10:39:00,78.1,58.5,29.84,WSW,242,3.0,8.0,51,0.00,,,0.00,Wunderground v.1.15,2013-07-15 17:39:00,
2013-07-15 10:44:00,78.4,58.2,29.84,SW,225,4.0,8.0,50,0.00,,,0.00,Wunderground v.1.15,2013-07-15 17:44:00,
2013-07-15 10:50:00,78.8,59.1,29.84,WSW,246,4.0,4.0,51,0.00,,,0.00,Wunderground v.1.15,2013-07-15 17:50:00,
2013-07-15 10:55:00,79.0,59.9,29.84,WSW,240,3.0,5.0,52,0.00,,,0.00,Wunderground v.1.15,2013-07-15 17:55:00,
2013-07-15 11:00:00,79.2,59.5,29.85,SW,234,4.0,4.0,51,0.00,,,0.00,Wunderground v.1.15,2013-07-15 18:00:00,
2013-07-15 11:05:00,79.1,58.9,29.84,WSW,258,5.0,7.0,50,0.00,,,0.00,Wunderground v.1.15,2013-07-15 18:05:00,
2013-07-15 11:11:00,79.0,59.9,29.84,SW,220,5.0,5.0,52,0.00,,,0.00,Wunderground v.1.15,2013-07-15 18:11:00,
2013-07-15 11:17:00,79.5,58.7,29.84,WSW,238,4.0,6.0,49,0.00,,,0.00,Wunderground v.1.15,2013-07-15 18:17:00,
2013-07-15 11:22:00,79.0,58.2,29.84,SSW,194,6.0,6.0,49,0.00,,,0.00,Wunderground v.1.15,2013-07-15 18:22:00,
2013-07-15 11:28:00,79.2,58.4,29.84,SW,219,5.0,7.0,49,0.00,,,0.00,Wunderground v.1.15,2013-07-15 18:28:00,
2013-07-15 11:34:00,78.8,57.4,29.84,WSW,242,6.0,10.0,48,0.00,,,0.00,Wunderground v.1.15,2013-07-15 18:34:00,
2013-07-15 11:39:00,78.9,58.7,29.84,SSW,207,8.0,10.0,50,0.00,,,0.00,Wunderground v.1.15,2013-07-15 18:39:00,
2013-07-15 11:45:00,79.0,58.2,29.84,WSW,242,6.0,10.0,49,0.00,,,0.00,Wunderground v.1.15,2013-07-15 18:45:00,
2013-07-15 11:50:00,78.9,57.5,29.84,West,281,7.0,7.0,48,0.00,,,0.00,Wunderground v.1.15,2013-07-15 18:50:00,
2013-07-15 11:55:00,78.3,57.6,29.84,WSW,254,8.0,13.0,49,0.00,,,0.00,Wunderground v.1.15,2013-07-15 18:55:00,
2013-07-15 12:01:00,78.3,58.1,29.84,SSW,202,7.0,8.0,50,0.00,,,0.00,Wunderground v.1.15,2013-07-15 19:01:00,
2013-07-15 12:07:00,78.3,58.1,29.84,WSW,248,7.0,10.0,50,0.00,,,0.00,Wunderground v.1.15,2013-07-15 19:07:00,
2013-07-15 12:13:00,78.2,58.0,29.84,WSW,252,7.0,10.0,50,0.00,,,0.00,Wunderground v.1.15,2013-07-15 19:13:00,
2013-07-15 12:18:00,78.3,58.7,29.84,SSW,198,6.0,10.0,51,0.00,,,0.00,Wunderground v.1.15,2013-07-15 19:18:00,
2013-07-15 12:23:00,78.5,58.9,29.84,WSW,250,6.0,8.0,51,0.00,,,0.00,Wunderground v.1.15,2013-07-15 19:23:00,
2013-07-15 12:29:00,78.3,57.6,29.84,SSW,199,7.0,14.0,49,0.00,,,0.00,Wunderground v.1.15,2013-07-15 19:29:00,
2013-07-15 12:34:00,78.6,57.3,29.84,West,277,7.0,12.0,48,0.00,,,0.00,Wunderground v.1.15,2013-07-15 19:34:00,
2013-07-15 12:41:00,78.4,55.9,29.84,WSW,240,8.0,10.0,46,0.00,,,0.00,Wunderground v.1.15,2013-07-15 19:41:00,
2013-07-15 12:47:00,78.3,55.8,29.84,WSW,255,8.0,10.0,46,0.00,,,0.00,Wunderground v.1.15,2013-07-15 19:47:00,
2013-07-15 12:53:00,78.3,55.8,29.84,West,265,8.0,10.0,46,0.00,,,0.00,Wunderground v.1.15,2013-07-15 19:53:00,
2013-07-15 12:59:00,78.7,56.2,29.84,West,270,8.0,12.0,46,0.00,,,0.00,Wunderground v.1.15,2013-07-15 19:59:00,
2013-07-15 13:04:00,78.9,55.8,29.84,West,259,8.0,14.0,45,0.00,,,0.00,Wunderground v.1.15,2013-07-15 20:04:00,
2013-07-15 13:09:00,78.8,56.9,29.84,West,271,9.0,10.0,47,0.00,,,0.00,Wunderground v.1.15,2013-07-15 20:09:00,
2013-07-15 13:15:00,79.3,57.3,29.84,SW,216,8.0,10.0,47,0.00,,,0.00,Wunderground v.1.15,2013-07-15 20:15:00,
2013-07-15 13:21:00,79.0,55.2,29.84,SW,230,8.0,8.0,44,0.00,,,0.00,Wunderground v.1.15,2013-07-15 20:21:00,
2013-07-15 13:26:00,79.1,55.3,29.83,West,265,8.0,13.0,44,0.00,,,0.00,Wunderground v.1.15,2013-07-15 20:26:00,
2013-07-15 13:32:00,79.0,54.6,29.84,WSW,240,9.0,9.0,43,0.00,,,0.00,Wunderground v.1.15,2013-07-15 20:32:00,
2013-07-15 13:37:00,79.2,54.1,29.83,SW,236,9.0,13.0,42,0.00,,,0.00,Wunderground v.1.15,2013-07-15 20:37:00,
2013-07-15 13:43:00,78.9,55.1,29.83,SW,234,9.0,11.0,44,0.00,,,0.00,Wunderground v.1.15,2013-07-15 20:43:00,
2013-07-15 13:49:00,78.9,53.9,29.83,WSW,255,9.0,13.0,42,0.00,,,0.00,Wunderground v.1.15,2013-07-15 20:49:00,
2013-07-15 13:54:00,79.3,56.1,29.83,West,273,8.0,13.0,45,0.00,,,0.00,Wunderground v.1.15,2013-07-15 20:54:00,
2013-07-15 14:00:00,79.4,55.0,29.83,West,276,8.0,8.0,43,0.00,,,0.00,Wunderground v.1.15,2013-07-15 21:00:00,
2013-07-15 14:06:00,79.1,54.7,29.83,SSW,211,9.0,18.0,43,0.00,,,0.00,Wunderground v.1.15,2013-07-15 21:06:00,
2013-07-15 14:11:00,78.8,54.4,29.83,South,171,10.0,12.0,43,0.00,,,0.00,Wunderground v.1.15,2013-07-15 21:11:00,
2013-07-15 14:18:00,78.7,53.7,29.83,SSW,207,9.0,14.0,42,0.00,,,0.00,Wunderground v.1.15,2013-07-15 21:18:00,
2013-07-15 14:23:00,78.3,52.7,29.83,WSW,240,11.0,13.0,41,0.00,,,0.00,Wunderground v.1.15,2013-07-15 21:23:00,
2013-07-15 14:29:00,78.3,54.0,29.83,SW,232,11.0,17.0,43,0.00,,,0.00,Wunderground v.1.15,2013-07-15 21:29:00,
2013-07-15 14:34:00,78.4,54.0,29.82,WSW,252,10.0,16.0,43,0.00,,,0.00,Wunderground v.1.15,2013-07-15 21:34:00,
2013-07-15 14:40:00,78.8,54.4,29.82,SSW,211,9.0,9.0,43,0.00,,,0.00,Wunderground v.1.15,2013-07-15 21:40:00,
2013-07-15 14:45:00,78.9,55.8,29.82,West,267,9.0,12.0,45,0.00,,,0.00,Wunderground v.1.15,2013-07-15 21:45:00,
2013-07-15 14:50:00,79.0,55.8,29.82,West,261,8.0,8.0,45,0.00,,,0.00,Wunderground v.1.15,2013-07-15 21:50:00,
2013-07-15 14:56:00,79.5,56.3,29.82,West,267,8.0,8.0,45,0.00,,,0.00,Wunderground v.1.15,2013-07-15 21:56:00,
2013-07-15 15:01:00,79.2,56.0,29.82,WSW,258,8.0,8.0,45,0.00,,,0.00,Wunderground v.1.15,2013-07-15 22:01:00,
2013-07-15 15:07:00,79.0,56.5,29.82,WNW,283,8.0,9.0,46,0.00,,,0.00,Wunderground v.1.15,2013-07-15 22:07:00,
2013-07-15 15:12:00,79.3,56.7,29.81,SW,236,9.0,9.0,46,0.00,,,0.00,Wunderground v.1.15,2013-07-15 22:12:00,
2013-07-15 15:17:00,79.8,56.6,29.81,WSW,252,9.0,13.0,45,0.00,,,0.00,Wunderground v.1.15,2013-07-15 22:17:00,
2013-07-15 15:22:00,79.9,57.9,29.81,West,261,7.0,8.0,47,0.00,,,0.00,Wunderground v.1.15,2013-07-15 22:22:00,
2013-07-15 15:28:00,79.7,56.5,29.81,West,273,7.0,12.0,45,0.00,,,0.00,Wunderground v.1.15,2013-07-15 22:28:00,
2013-07-15 15:33:00,79.4,57.4,29.81,West,263,7.0,10.0,47,0.00,,,0.00,Wunderground v.1.15,2013-07-15 22:33:00,
2013-07-15 15:39:00,79.3,57.3,29.81,West,263,7.0,15.0,47,0.00,,,0.00,Wunderground v.1.15,2013-07-15 22:39:00,
2013-07-15 15:45:00,79.1,57.1,29.81,WSW,251,8.0,14.0,47,0.00,,,0.00,Wunderground v.1.15,2013-07-15 22:45:00,
2013-07-15 15:50:00,79.0,57.0,29.81,SSW,208,7.0,7.0,47,0.00,,,0.00,Wunderground v.1.15,2013-07-15 22:50:00,
2013-07-15 15:56:00,79.3,57.3,29.81,West,269,7.0,12.0,47,0.00,,,0.00,Wunderground v.1.15,2013-07-15 22:56:00,
2013-07-15 16:01:00,78.8,56.9,29.81,WNW,284,7.0,10.0,47,0.00,,,0.00,Wunderground v.1.15,2013-07-15 23:01:00,
2013-07-15 16:07:00,78.0,56.7,29.81,WSW,240,8.0,10.0,48,0.00,,,0.00,Wunderground v.1.15,2013-07-15 23:07:00,
2013-07-15 16:13:00,77.5,56.3,29.80,WSW,258,8.0,15.0,48,0.00,,,0.00,Wunderground v.1.15,2013-07-15 23:13:00,
2013-07-15 16:19:00,77.3,57.2,29.80,West,261,8.0,15.0,50,0.00,,,0.00,Wunderground v.1.15,2013-07-15 23:19:00,
2013-07-15 16:25:00,77.0,57.5,29.80,West,265,7.0,10.0,51,0.00,,,0.00,Wunderground v.1.15,2013-07-15 23:25:00,
2013-07-15 16:30:00,76.8,57.3,29.80,West,261,7.0,8.0,51,0.00,,,0.00,Wunderground v.1.15,2013-07-15 23:30:00,
2013-07-15 16:35:00,76.7,57.2,29.80,West,265,7.0,10.0,51,0.00,,,0.00,Wunderground v.1.15,2013-07-15 23:35:00,
2013-07-15 16:41:00,76.6,57.1,29.80,WNW,284,6.0,6.0,51,0.00,,,0.00,Wunderground v.1.15,2013-07-15 23:41:00,
2013-07-15 16:46:00,76.5,57.0,29.80,West,265,7.0,10.0,51,0.00,,,0.00,Wunderground v.1.15,2013-07-15 23:46:00,
2013-07-15 16:51:00,76.1,57.2,29.80,WSW,239,7.0,15.0,52,0.00,,,0.00,Wunderground v.1.15,2013-07-15 23:51:00,
2013-07-15 16:57:00,75.2,56.4,29.80,West,272,7.0,15.0,52,0.00,,,0.00,Wunderground v.1.15,2013-07-15 23:57:00,
2013-07-15 17:03:00,74.6,56.9,29.80,West,270,7.0,7.0,54,0.00,,,0.00,Wunderground v.1.15,2013-07-16 00:03:00,
2013-07-15 17:08:00,74.3,57.1,29.80,WSW,252,6.0,7.0,55,0.00,,,0.00,Wunderground v.1.15,2013-07-16 00:08:00,
2013-07-15 17:14:00,74.5,57.3,29.80,West,261,7.0,9.0,55,0.00,,,0.00,Wunderground v.1.15,2013-07-16 00:14:00,
2013-07-15 17:19:00,74.6,57.4,29.80,SSW,201,7.0,9.0,55,0.00,,,0.00,Wunderground v.1.15,2013-07-16 00:19:00,
2013-07-15 17:24:00,73.8,57.1,29.80,West,259,7.0,7.0,56,0.00,,,0.00,Wunderground v.1.15,2013-07-16 00:24:00,
2013-07-15 17:29:00,73.6,57.4,29.80,West,263,7.0,8.0,57,0.00,,,0.00,Wunderground v.1.15,2013-07-16 00:29:00,
2013-07-15 17:34:00,73.1,57.4,29.80,WSW,257,7.0,9.0,58,0.00,,,0.00,Wunderground v.1.15,2013-07-16 00:34:00,
2013-07-15 17:40:00,73.0,57.3,29.80,West,273,6.0,6.0,58,0.00,,,0.00,Wunderground v.1.15,2013-07-16 00:40:00,
2013-07-15 17:45:00,72.9,57.7,29.80,SW,231,6.0,14.0,59,0.00,,,0.00,Wunderground v.1.15,2013-07-16 00:45:00,
2013-07-15 17:50:00,72.5,57.8,29.80,West,259,7.0,7.0,60,0.00,,,0.00,Wunderground v.1.15,2013-07-16 00:50:00,
2013-07-15 17:56:00,72.3,57.6,29.80,WSW,248,6.0,10.0,60,0.00,,,0.00,Wunderground v.1.15,2013-07-16 00:56:00,
2013-07-15 18:01:00,72.1,57.4,29.79,WSW,257,7.0,8.0,60,0.00,,,0.00,Wunderground v.1.15,2013-07-16 01:01:00,
2013-07-15 18:06:00,71.4,57.2,29.79,WSW,257,7.0,9.0,61,0.00,,,0.00,Wunderground v.1.15,2013-07-16 01:06:00,
2013-07-15 18:12:00,70.8,57.1,29.79,WSW,255,7.0,9.0,62,0.00,,,0.00,Wunderground v.1.15,2013-07-16 01:12:00,
2013-07-15 18:17:00,70.2,57.0,29.80,SW,229,7.0,9.0,63,0.00,,,0.00,Wunderground v.1.15,2013-07-16 01:17:00,
2013-07-15 18:22:00,69.8,57.1,29.79,WSW,250,6.0,7.0,64,0.00,,,0.00,Wunderground v.1.15,2013-07-16 01:22:00,
2013-07-15 18:30:00,69.5,56.8,29.79,WSW,252,5.0,5.0,64,0.00,,,0.00,Wunderground v.1.15,2013-07-16 01:30:00,
2013-07-15 18:35:00,69.3,57.0,29.80,West,269,5.0,6.0,65,0.00,,,0.00,Wunderground v.1.15,2013-07-16 01:35:00,
2013-07-15 18:42:00,69.2,56.9,29.80,WSW,238,5.0,5.0,65,0.00,,,0.00,Wunderground v.1.15,2013-07-16 01:42:00,
2013-07-15 18:47:00,69.2,56.9,29.80,WSW,249,5.0,7.0,65,0.00,,,0.00,Wunderground v.1.15,2013-07-16 01:47:00,
2013-07-15 18:53:00,69.0,56.7,29.80,WSW,244,5.0,5.0,65,0.00,,,0.00,Wunderground v.1.15,2013-07-16 01:53:00,
2013-07-15 18:58:00,68.9,57.1,29.80,SW,222,4.0,5.0,66,0.00,,,0.00,Wunderground v.1.15,2013-07-16 01:58:00,
2013-07-15 19:03:00,68.8,57.0,29.80,West,262,3.0,4.0,66,0.00,,,0.00,Wunderground v.1.15,2013-07-16 02:03:00,
2013-07-15 19:09:00,68.6,56.8,29.80,WSW,252,4.0,5.0,66,0.00,,,0.00,Wunderground v.1.15,2013-07-16 02:09:00,
2013-07-15 19:14:00,68.3,56.9,29.80,SW,221,4.0,7.0,67,0.00,,,0.00,Wunderground v.1.15,2013-07-16 02:14:00,
2013-07-15 19:19:00,67.8,56.9,29.80,SW,215,3.0,3.0,68,0.00,,,0.00,Wunderground v.1.15,2013-07-16 02:19:00,
2013-07-15 19:26:00,67.4,56.9,29.80,SSW,200,2.0,4.0,69,0.00,,,0.00,Wunderground v.1.15,2013-07-16 02:26:00,
2013-07-15 19:31:00,67.0,56.9,29.81,SW,229,2.0,2.0,70,0.00,,,0.00,Wunderground v.1.15,2013-07-16 02:31:00,
2013-07-15 19:37:00,66.6,56.9,29.80,SW,227,1.0,4.0,71,0.00,,,0.00,Wunderground v.1.15,2013-07-16 02:37:00,
2013-07-15 19:42:00,66.0,56.7,29.80,SW,227,1.0,3.0,72,0.00,,,0.00,Wunderground v.1.15,2013-07-16 02:42:00,
2013-07-15 19:48:00,65.4,56.5,29.80,SW,223,1.0,3.0,73,0.00,,,0.00,Wunderground v.1.15,2013-07-16 02:48:00,
2013-07-15 19:53:00,64.8,56.3,29.80,SSW,211,1.0,3.0,74,0.00,,,0.00,Wunderground v.1.15,2013-07-16 02:53:00,
2013-07-15 19:58:00,64.2,56.1,29.80,SSW,211,1.0,3.0,75,0.00,,,0.00,Wunderground v.1.15,2013-07-16 02:58:00,
2013-07-15 20:04:00,63.8,56.4,29.81,SSW,213,1.0,1.0,77,0.00,,,0.00,Wunderground v.1.15,2013-07-16 03:04:00,
2013-07-15 20:09:00,63.3,56.0,29.81,South,190,1.0,1.0,77,0.00,,,0.00,Wunderground v.1.15,2013-07-16 03:09:00,
2013-07-15 20:16:00,62.7,56.1,29.81,SW,230,0.0,1.0,79,0.00,,,0.00,Wunderground v.1.15,2013-07-16 03:16:00,
2013-07-15 20:22:00,62.4,55.8,29.81,WSW,244,1.0,1.0,79,0.00,,,0.00,Wunderground v.1.15,2013-07-16 03:22:00,
2013-07-15 20:27:00,62.1,55.9,29.81,WSW,244,1.0,4.0,80,0.00,,,0.00,Wunderground v.1.15,2013-07-16 03:27:00,
2013-07-15 20:34:00,61.8,55.9,29.82,SW,231,1.0,3.0,81,0.00,,,0.00,Wunderground v.1.15,2013-07-16 03:34:00,
2013-07-15 20:39:00,61.5,55.6,29.82,WSW,244,1.0,1.0,81,0.00,,,0.00,Wunderground v.1.15,2013-07-16 03:39:00,
2013-07-15 20:45:00,61.4,55.9,29.82,WSW,244,1.0,2.0,82,0.00,,,0.00,Wunderground v.1.15,2013-07-16 03:45:00,
2013-07-15 20:50:00,61.2,55.7,29.83,SSW,209,0.0,1.0,82,0.00,,,0.00,Wunderground v.1.15,2013-07-16 03:50:00,
2013-07-15 20:56:00,61.0,55.5,29.83,SSW,212,0.0,1.0,82,0.00,,,0.00,Wunderground v.1.15,2013-07-16 03:56:00,
2013-07-15 21:01:00,60.8,55.6,29.83,WSW,239,1.0,4.0,83,0.00,,,0.00,Wunderground v.1.15,2013-07-16 04:01:00,
2013-07-15 21:02:00,60.7,55.5,29.83,SW,226,1.0,4.0,83,0.00,,,0.00,Wunderground v.1.15,2013-07-16 04:02:00,
2013-07-15 21:04:00,60.6,55.4,29.83,WSW,240,2.0,4.0,83,0.00,,,0.00,Wunderground v.1.15,2013-07-16 04:04:00,
2013-07-15 21:06:00,60.5,55.3,29.83,WSW,242,2.0,4.0,83,0.00,,,0.00,Wunderground v.1.15,2013-07-16 04:06:00,
2013-07-15 21:08:00,60.4,55.5,29.83,WSW,242,2.0,4.0,84,0.00,,,0.00,Wunderground v.1.15,2013-07-16 04:08:00,
2013-07-15 21:14:00,60.1,55.2,29.83,SW,232,0.0,1.0,84,0.00,,,0.00,Wunderground v.1.15,2013-07-16 04:14:00,
2013-07-15 21:19:00,59.9,55.4,29.83,SW,219,1.0,1.0,85,0.00,,,0.00,Wunderground v.1.15,2013-07-16 04:19:00,
2013-07-15 21:25:00,59.6,55.1,29.84,SW,231,1.0,1.0,85,0.00,,,0.00,Wunderground v.1.15,2013-07-16 04:25:00,
2013-07-15 21:30:00,59.5,55.3,29.84,SSW,209,0.0,0.0,86,0.00,,,0.00,Wunderground v.1.15,2013-07-16 04:30:00,
2013-07-15 21:36:00,59.4,55.2,29.84,SW,221,0.0,1.0,86,0.00,,,0.00,Wunderground v.1.15,2013-07-16 04:36:00,
2013-07-15 21:42:00,59.2,55.0,29.84,SW,221,0.0,0.0,86,0.00,,,0.00,Wunderground v.1.15,2013-07-16 04:42:00,
2013-07-15 21:47:00,59.0,54.8,29.84,SW,219,0.0,0.0,86,0.00,,,0.00,Wunderground v.1.15,2013-07-16 04:47:00,
2013-07-15 21:52:00,59.0,55.1,29.84,SSW,211,0.0,2.0,87,0.00,,,0.00,Wunderground v.1.15,2013-07-16 04:52:00,
2013-07-15 21:58:00,58.8,54.9,29.85,SSW,211,0.0,2.0,87,0.00,,,0.00,Wunderground v.1.15,2013-07-16 04:58:00,
2013-07-15 22:03:00,58.7,54.8,29.85,SSW,213,0.0,0.0,87,0.00,,,0.00,Wunderground v.1.15,2013-07-16 05:03:00,
2013-07-15 22:09:00,58.4,54.2,29.85,SW,219,0.0,0.0,86,0.00,,,0.00,Wunderground v.1.15,2013-07-16 05:09:00,
2013-07-15 22:14:00,58.1,54.2,29.85,SW,219,0.0,0.0,87,0.00,,,0.00,Wunderground v.1.15,2013-07-16 05:14:00,
2013-07-15 22:19:00,57.6,53.4,29.85,SW,219,0.0,0.0,86,0.00,,,0.00,Wunderground v.1.15,2013-07-16 05:19:00,
2013-07-15 22:25:00,57.1,53.0,29.85,SW,219,0.0,0.0,86,0.00,,,0.00,Wunderground v.1.15,2013-07-16 05:25:00,
2013-07-15 22:31:00,56.8,53.0,29.85,SW,219,0.0,0.0,87,0.00,,,0.00,Wunderground v.1.15,2013-07-16 05:31:00,
2013-07-15 22:37:00,56.5,52.7,29.85,SW,219,0.0,0.0,87,0.00,,,0.00,Wunderground v.1.15,2013-07-16 05:37:00,
2013-07-15 22:43:00,56.3,52.5,29.85,SW,219,0.0,0.0,87,0.00,,,0.00,Wunderground v.1.15,2013-07-16 05:43:00,
2013-07-15 22:48:00,55.9,52.1,29.85,SW,219,0.0,0.0,87,0.00,,,0.00,Wunderground v.1.15,2013-07-16 05:48:00,
2013-07-15 22:54:00,55.5,51.7,29.85,SW,219,0.0,0.0,87,0.00,,,0.00,Wunderground v.1.15,2013-07-16 05:54:00,
2013-07-15 22:59:00,55.2,51.7,29.85,SW,219,0.0,1.0,88,0.00,,,0.00,Wunderground v.1.15,2013-07-16 05:59:00,
2013-07-15 23:05:00,54.9,51.4,29.85,SW,223,0.0,1.0,88,0.00,,,0.00,Wunderground v.1.15,2013-07-16 06:05:00,
2013-07-15 23:11:00,54.6,51.1,29.85,SW,227,0.0,0.0,88,0.00,,,0.00,Wunderground v.1.15,2013-07-16 06:11:00,
2013-07-15 23:16:00,54.3,50.8,29.85,WNW,302,0.0,0.0,88,0.00,,,0.00,Wunderground v.1.15,2013-07-16 06:16:00,
2013-07-15 23:22:00,54.2,51.0,29.85,WNW,303,0.0,0.0,89,0.00,,,0.00,Wunderground v.1.15,2013-07-16 06:22:00,
2013-07-15 23:27:00,54.1,50.9,29.86,WNW,303,0.0,0.0,89,0.00,,,0.00,Wunderground v.1.15,2013-07-16 06:27:00,
2013-07-15 23:33:00,53.9,51.0,29.86,WNW,303,0.0,0.0,90,0.00,,,0.00,Wunderground v.1.15,2013-07-16 06:33:00,
2013-07-15 23:38:00,53.7,50.8,29.86,WNW,303,0.0,0.0,90,0.00,,,0.00,Wunderground v.1.15,2013-07-16 06:38:00,
2013-07-15 23:44:00,53.6,50.7,29.86,NW,304,0.0,1.0,90,0.00,,,0.00,Wunderground v.1.15,2013-07-16 06:44:00,
2013-07-15 23:49:00,53.5,50.9,29.86,NW,304,0.0,1.0,91,0.00,,,0.00,Wunderground v.1.15,2013-07-16 06:49:00,
2013-07-15 23:56:00,53.5,50.9,29.87,NW,304,0.0,1.0,91,0.00,,,0.00,Wunderground v.1.15,2013-07-16 06:56:00,